Time;durP1;ratioP1;P1;durP2;ratioP2;P2;SDS_P1;SDS_P2;PMS_P1;PMS_P2;Temp;Humidity;BMP_temperature;BMP_pressure;BME280_temperature;BME280_humidity;BME280_pressure;Samples;Min_cycle;Max_cycle;Signal;HPM_P1;HPM_P2
2022/07/06 00:00:04;;;;;;;3.30;1.60;;;;;;;;;;6072539;23;20083;-82
2022/07/06 00:02:31;;;;;;;5.18;1.60;;;;;;;;;;6071199;23;20034;-81
2022/07/06 00:04:58;;;;;;;4.72;1.63;;;;;;;;;;6072591;23;20020;-80
2022/07/06 00:07:25;;;;;;;3.83;1.55;;;;;;;;;;6072783;23;20027;-80
2022/07/06 00:09:53;;;;;;;2.58;1.25;;;;;;;;;;6072483;23;20023;-81
2022/07/06 00:12:20;;;;;;;5.10;1.48;;;;;;;;;;6072899;23;20871;-80
2022/07/06 00:14:47;;;;;;;4.00;1.60;;;;;;;;;;6073479;23;20048;-80
2022/07/06 00:17:14;;;;;;;5.53;1.75;;;;;;;;;;6073248;23;20027;-80
2022/07/06 00:19:41;;;;;;;4.18;1.50;;;;;;;;;;6072477;23;20021;-81
2022/07/06 00:22:08;;;;;;;3.03;1.45;;;;;;;;;;6072043;23;20058;-80
2022/07/06 00:24:35;;;;;;;6.35;1.80;;;;;;;;;;6072775;23;20023;-81
2022/07/06 00:27:02;;;;;;;4.15;1.67;;;;;;;;;;6072266;23;20047;-80
2022/07/06 00:29:30;;;;;;;7.13;1.70;;;;;;;;;;6071535;23;20046;-80
2022/07/06 00:31:58;;;;;;;5.07;1.70;;;;;;;;;;6071286;23;20852;-80
2022/07/06 00:34:25;;;;;;;5.18;1.73;;;;;;;;;;6072123;23;20023;-83
2022/07/06 00:36:52;;;;;;;5.97;1.70;;;;;;;;;;6073215;23;20023;-80
2022/07/06 00:39:19;;;;;;;4.85;1.63;;;;;;;;;;6072829;23;20030;-81
2022/07/06 00:41:46;;;;;;;3.78;1.63;;;;;;;;;;6072851;23;20032;-81
2022/07/06 00:44:13;;;;;;;5.75;1.63;;;;;;;;;;6071940;23;20821;-80
2022/07/06 00:46:40;;;;;;;4.53;1.83;;;;;;;;;;6072596;23;20051;-80
2022/07/06 00:50:13;;;;;;;6.55;1.85;;;;;;;;;;6072379;23;20023;-81
2022/07/06 00:51:55;;;;;;;3.28;1.60;;;;;;;;;;6072984;23;20027;-81
2022/07/06 00:54:22;;;;;;;5.40;1.67;;;;;;;;;;6072129;23;20027;-80
2022/07/06 00:56:49;;;;;;;4.07;1.80;;;;;;;;;;6073569;23;20083;-80
2022/07/06 00:59:16;;;;;;;4.22;1.70;;;;;;;;;;6073209;23;20027;-82
2022/07/06 01:01:43;;;;;;;7.32;1.92;;;;;;;;;;6074080;23;20016;-81
2022/07/06 01:04:10;;;;;;;6.85;1.80;;;;;;;;;;6074776;23;20681;-82
2022/07/06 01:06:38;;;;;;;5.97;2.05;;;;;;;;;;6073801;23;20023;-80
2022/07/06 01:09:05;;;;;;;5.43;1.65;;;;;;;;;;6073383;23;20030;-80
2022/07/06 01:11:33;;;;;;;4.45;1.60;;;;;;;;;;6074225;23;20028;-80
2022/07/06 01:14:01;;;;;;;5.18;1.63;;;;;;;;;;6073460;23;20029;-81
2022/07/06 01:16:28;;;;;;;6.18;1.77;;;;;;;;;;6073472;23;20103;-80
2022/07/06 01:18:55;;;;;;;4.05;1.40;;;;;;;;;;6073086;23;20060;-80
2022/07/06 01:21:23;;;;;;;4.57;1.65;;;;;;;;;;6048082;23;20067;-80
2022/07/06 01:23:50;;;;;;;4.38;1.60;;;;;;;;;;6072307;23;20054;-81
2022/07/06 01:26:19;;;;;;;5.53;1.65;;;;;;;;;;6072946;23;20039;-80
2022/07/06 01:28:47;;;;;;;4.65;1.60;;;;;;;;;;6072151;23;20524;-81
2022/07/06 01:31:18;;;;;;;3.97;1.50;;;;;;;;;;6071708;23;20027;-81
2022/07/06 01:33:46;;;;;;;3.33;1.63;;;;;;;;;;6072762;23;20028;-81
2022/07/06 01:36:13;;;;;;;4.00;1.60;;;;;;;;;;6073097;23;20127;-80
2022/07/06 01:38:44;;;;;;;4.10;2.10;;;;;;;;;;6073026;23;20019;-81
2022/07/06 01:41:12;;;;;;;1.95;1.42;;;;;;;;;;6071834;23;20114;-81
2022/07/06 01:43:39;;;;;;;5.03;1.60;;;;;;;;;;6071717;23;20110;-81
2022/07/06 01:46:06;;;;;;;3.97;1.55;;;;;;;;;;6072843;23;20034;-81
2022/07/06 01:48:33;;;;;;;2.90;1.50;;;;;;;;;;6073569;23;20033;-80
2022/07/06 01:51:00;;;;;;;3.75;1.50;;;;;;;;;;6072449;23;20032;-81
2022/07/06 01:53:27;;;;;;;4.28;1.80;;;;;;;;;;6072695;23;20015;-80
2022/07/06 01:55:55;;;;;;;2.90;1.67;;;;;;;;;;6072963;23;20046;-81
2022/07/06 01:58:22;;;;;;;4.32;1.55;;;;;;;;;;6072687;23;20106;-80
2022/07/06 02:00:51;;;;;;;6.18;1.95;;;;;;;;;;6071786;23;20070;-81
2022/07/06 02:03:18;;;;;;;4.13;1.60;;;;;;;;;;6070325;23;20122;-80
2022/07/06 02:05:45;;;;;;;5.20;1.42;;;;;;;;;;6070804;23;20071;-81
2022/07/06 02:08:12;;;;;;;6.32;1.80;;;;;;;;;;6070422;23;20024;-79
2022/07/06 02:10:40;;;;;;;5.63;1.73;;;;;;;;;;6046029;23;20042;-81
2022/07/06 02:13:07;;;;;;;3.25;1.48;;;;;;;;;;6070823;23;20899;-80
2022/07/06 02:15:34;;;;;;;6.30;1.70;;;;;;;;;;6070343;23;20083;-80
2022/07/06 02:18:01;;;;;;;2.95;1.65;;;;;;;;;;6071689;23;20023;-80
2022/07/06 02:20:28;;;;;;;8.57;2.08;;;;;;;;;;6070487;23;20087;-81
2022/07/06 02:22:55;;;;;;;6.80;1.80;;;;;;;;;;6070535;23;20059;-80
2022/07/06 02:25:22;;;;;;;5.63;1.90;;;;;;;;;;6070465;23;20849;-80
2022/07/06 02:27:49;;;;;;;5.00;1.73;;;;;;;;;;6071251;23;20094;-80
2022/07/06 02:30:16;;;;;;;4.95;1.70;;;;;;;;;;6070116;23;20036;-80
2022/07/06 02:32:43;;;;;;;3.95;1.63;;;;;;;;;;6071680;23;20050;-80
2022/07/06 02:35:10;;;;;;;7.63;1.77;;;;;;;;;;6072005;23;20023;-80
2022/07/06 02:37:38;;;;;;;4.03;1.63;;;;;;;;;;6046887;23;20022;-82
2022/07/06 02:40:05;;;;;;;3.78;1.52;;;;;;;;;;6072179;23;20031;-80
2022/07/06 02:42:32;;;;;;;4.35;1.60;;;;;;;;;;6072335;23;20377;-80
2022/07/06 02:45:00;;;;;;;5.18;1.60;;;;;;;;;;6071460;23;20021;-80
2022/07/06 02:47:27;;;;;;;3.85;1.73;;;;;;;;;;6073150;23;20795;-81
2022/07/06 02:49:54;;;;;;;6.60;2.10;;;;;;;;;;6047463;23;20037;-82
2022/07/06 02:52:21;;;;;;;3.92;1.70;;;;;;;;;;6079276;23;20075;-80
2022/07/06 02:54:48;;;;;;;8.45;1.95;;;;;;;;;;6076407;23;20027;-80
2022/07/06 02:57:16;;;;;;;6.72;1.95;;;;;;;;;;6073286;23;20027;-80
2022/07/06 02:59:44;;;;;;;5.13;1.55;;;;;;;;;;6072773;23;20445;-81
2022/07/06 03:02:11;;;;;;;9.10;1.75;;;;;;;;;;6072486;23;20756;-80
2022/07/06 03:04:38;;;;;;;4.85;1.75;;;;;;;;;;6071477;23;20024;-80
2022/07/06 03:07:05;;;;;;;2.92;1.50;;;;;;;;;;6072081;23;20035;-80
2022/07/06 03:09:32;;;;;;;5.18;1.58;;;;;;;;;;6071928;23;20059;-81
2022/07/06 03:11:59;;;;;;;4.32;1.58;;;;;;;;;;6072378;23;20019;-81
2022/07/06 03:14:26;;;;;;;2.13;1.50;;;;;;;;;;6072228;23;20038;-79
2022/07/06 03:16:54;;;;;;;2.83;1.45;;;;;;;;;;6072595;23;20016;-80
2022/07/06 03:19:21;;;;;;;3.40;1.60;;;;;;;;;;6071125;23;20075;-80
2022/07/06 03:21:48;;;;;;;3.42;1.52;;;;;;;;;;6071984;23;20027;-80
2022/07/06 03:24:15;;;;;;;6.07;1.73;;;;;;;;;;6071417;23;20037;-80
2022/07/06 03:26:42;;;;;;;5.07;1.58;;;;;;;;;;6072722;23;20019;-80
2022/07/06 03:29:09;;;;;;;3.15;1.45;;;;;;;;;;6071809;23;20818;-80
2022/07/06 03:31:36;;;;;;;4.70;1.45;;;;;;;;;;6071924;23;20023;-80
2022/07/06 03:34:03;;;;;;;3.72;1.50;;;;;;;;;;6071604;23;20034;-80
2022/07/06 03:36:30;;;;;;;5.43;1.60;;;;;;;;;;6071615;23;20067;-80
2022/07/06 03:39:05;;;;;;;7.05;1.45;;;;;;;;;;6071723;23;20375;-80
2022/07/06 03:41:32;;;;;;;6.03;1.38;;;;;;;;;;6072394;23;20019;-80
2022/07/06 03:43:59;;;;;;;3.65;1.50;;;;;;;;;;6071482;23;20528;-80
2022/07/06 03:46:26;;;;;;;3.72;1.45;;;;;;;;;;6071775;23;20028;-80
2022/07/06 03:48:53;;;;;;;3.42;1.40;;;;;;;;;;6072202;23;20028;-80
2022/07/06 03:51:20;;;;;;;4.90;1.38;;;;;;;;;;6071521;23;20824;-82
2022/07/06 03:53:47;;;;;;;4.50;1.58;;;;;;;;;;6071653;23;20023;-79
2022/07/06 03:56:29;;;;;;;6.75;1.52;;;;;;;;;;6072007;23;20029;-80
2022/07/06 03:58:57;;;;;;;5.57;1.60;;;;;;;;;;6071657;23;20042;-82
2022/07/06 04:01:24;;;;;;;2.53;1.30;;;;;;;;;;6070674;23;20721;-82
2022/07/06 04:03:52;;;;;;;4.90;1.52;;;;;;;;;;6046073;23;20031;-83
2022/07/06 04:06:19;;;;;;;2.45;1.42;;;;;;;;;;6070760;23;20050;-81
2022/07/06 04:08:46;;;;;;;3.92;1.73;;;;;;;;;;6070694;23;20028;-80
2022/07/06 04:11:13;;;;;;;6.13;1.58;;;;;;;;;;6070294;23;20098;-81
2022/07/06 04:13:40;;;;;;;4.55;1.40;;;;;;;;;;6071023;23;20469;-82
2022/07/06 04:16:07;;;;;;;5.43;1.40;;;;;;;;;;6071491;23;20024;-80
2022/07/06 04:18:34;;;;;;;8.98;1.40;;;;;;;;;;6072261;23;20083;-80
2022/07/06 04:21:02;;;;;;;3.60;1.40;;;;;;;;;;6070923;23;20027;-81
2022/07/06 04:23:29;;;;;;;2.83;1.20;;;;;;;;;;6071236;23;20031;-80
2022/07/06 04:25:56;;;;;;;3.80;1.10;;;;;;;;;;6071549;23;20034;-80
2022/07/06 04:28:23;;;;;;;2.17;1.30;;;;;;;;;;6071133;23;20037;-81
2022/07/06 04:30:51;;;;;;;4.85;1.50;;;;;;;;;;6070799;23;20034;-80
2022/07/06 04:33:18;;;;;;;4.43;1.48;;;;;;;;;;6071439;23;20024;-80
2022/07/06 04:35:45;;;;;;;5.55;1.27;;;;;;;;;;6070748;23;20024;-80
2022/07/06 04:38:12;;;;;;;4.50;1.63;;;;;;;;;;6045793;23;20058;-80
2022/07/06 04:40:39;;;;;;;4.30;1.30;;;;;;;;;;6070725;23;20086;-80
2022/07/06 04:43:07;;;;;;;6.45;1.20;;;;;;;;;;6071559;23;20033;-80
2022/07/06 04:45:34;;;;;;;4.90;1.20;;;;;;;;;;6070828;23;20027;-81
2022/07/06 04:48:01;;;;;;;6.68;1.50;;;;;;;;;;6071726;23;20062;-81
2022/07/06 04:50:28;;;;;;;4.38;1.40;;;;;;;;;;6071020;23;20022;-80
2022/07/06 04:52:55;;;;;;;4.55;1.48;;;;;;;;;;6069377;23;20029;-80
2022/07/06 04:55:22;;;;;;;6.10;1.20;;;;;;;;;;6070753;23;20027;-80
2022/07/06 04:57:51;;;;;;;3.17;1.30;;;;;;;;;;6067667;23;20668;-81
2022/07/06 05:00:18;;;;;;;4.88;1.70;;;;;;;;;;6068915;23;20053;-80
2022/07/06 05:02:45;;;;;;;4.50;1.42;;;;;;;;;;6045457;23;20054;-80
2022/07/06 05:05:12;;;;;;;4.22;1.40;;;;;;;;;;6070278;23;20033;-81
2022/07/06 05:07:39;;;;;;;6.38;1.52;;;;;;;;;;6070126;23;20031;-81
2022/07/06 05:10:10;;;;;;;5.88;1.50;;;;;;;;;;6069723;23;20024;-80
2022/07/06 05:12:38;;;;;;;2.70;1.27;;;;;;;;;;6069955;23;20037;-81
2022/07/06 05:15:05;;;;;;;2.92;1.50;;;;;;;;;;6069321;23;20541;-80
2022/07/06 05:17:32;;;;;;;3.15;1.52;;;;;;;;;;6044651;23;20114;-80
2022/07/06 05:19:59;;;;;;;5.90;1.45;;;;;;;;;;6070149;23;20047;-80
2022/07/06 05:22:27;;;;;;;2.97;1.50;;;;;;;;;;6069269;23;20621;-79
2022/07/06 05:24:57;;;;;;;3.30;1.40;;;;;;;;;;6069117;23;20891;-80
2022/07/06 05:27:28;;;;;;;6.53;1.30;;;;;;;;;;6069300;23;20895;-80
2022/07/06 05:29:55;;;;;;;3.97;1.30;;;;;;;;;;6068079;23;20032;-80
2022/07/06 05:32:22;;;;;;;2.97;1.13;;;;;;;;;;6067701;23;20023;-80
2022/07/06 05:34:51;;;;;;;1.40;1.17;;;;;;;;;;6068089;23;20030;-80
2022/07/06 05:37:18;;;;;;;3.40;1.33;;;;;;;;;;6069525;23;20036;-81
2022/07/06 05:39:47;;;;;;;3.88;1.25;;;;;;;;;;6071421;23;20045;-81
2022/07/06 05:42:14;;;;;;;3.03;1.13;;;;;;;;;;6043550;23;20024;-80
2022/07/06 05:44:41;;;;;;;4.47;1.10;;;;;;;;;;6069717;23;20032;-82
2022/07/06 05:50:12;;;;;;;2.50;1.15;;;;;;;;;;6070438;23;20803;-81
2022/07/06 05:52:40;;;;;;;3.92;1.00;;;;;;;;;;6069979;23;20026;-81
2022/07/06 05:55:07;;;;;;;3.28;0.98;;;;;;;;;;6070526;23;20103;-81
2022/07/06 05:57:35;;;;;;;4.60;1.00;;;;;;;;;;6068869;23;20034;-81
2022/07/06 06:00:02;;;;;;;3.17;1.00;;;;;;;;;;6069176;23;20877;-82
2022/07/06 06:02:37;;;;;;;3.95;1.20;;;;;;;;;;6069457;23;20027;-81
2022/07/06 06:05:05;;;;;;;4.20;1.05;;;;;;;;;;6043033;23;20055;-81
2022/07/06 06:07:33;;;;;;;5.18;1.45;;;;;;;;;;6071200;23;20027;-80
2022/07/06 06:10:01;;;;;;;3.97;1.20;;;;;;;;;;6071425;23;20106;-82
2022/07/06 06:12:28;;;;;;;4.43;1.00;;;;;;;;;;6071730;23;20279;-81
2022/07/06 06:14:58;;;;;;;4.43;1.00;;;;;;;;;;6071235;23;20026;-81
2022/07/06 06:17:25;;;;;;;4.47;1.05;;;;;;;;;;6070154;23;20035;-82
2022/07/06 06:19:52;;;;;;;4.15;0.90;;;;;;;;;;6071148;23;20024;-81
2022/07/06 06:22:22;;;;;;;3.13;0.90;;;;;;;;;;6074065;23;20110;-81
2022/07/06 06:24:49;;;;;;;3.25;1.00;;;;;;;;;;6072953;23;20792;-82
2022/07/06 06:27:22;;;;;;;3.92;1.10;;;;;;;;;;6071605;23;20037;-82
2022/07/06 06:29:49;;;;;;;9.50;1.30;;;;;;;;;;6070880;23;20114;-81
2022/07/06 06:32:16;;;;;;;2.30;0.93;;;;;;;;;;6070967;23;20027;-81
2022/07/06 06:34:43;;;;;;;4.53;0.90;;;;;;;;;;6071483;23;20028;-82
2022/07/06 06:37:11;;;;;;;3.53;1.05;;;;;;;;;;6070883;23;20023;-82
2022/07/06 06:39:38;;;;;;;5.85;0.90;;;;;;;;;;6070329;23;20027;-80
2022/07/06 06:42:08;;;;;;;0.80;0.68;;;;;;;;;;6070689;23;20495;-81
2022/07/06 06:44:35;;;;;;;4.20;1.30;;;;;;;;;;6071657;23;20095;-81
2022/07/06 06:47:04;;;;;;;2.90;0.80;;;;;;;;;;6046205;23;20092;-81
2022/07/06 06:49:47;;;;;;;7.53;1.08;;;;;;;;;;6071209;23;20023;-81
2022/07/06 06:52:14;;;;;;;3.63;1.08;;;;;;;;;;6071699;23;20060;-81
2022/07/06 06:55:02;;;;;;;2.40;0.80;;;;;;;;;;6071529;23;20364;-81
2022/07/06 06:57:29;;;;;;;3.33;1.10;;;;;;;;;;6046161;23;20027;-81
2022/07/06 06:59:59;;;;;;;6.50;0.98;;;;;;;;;;6071654;23;20023;-82
2022/07/06 07:02:26;;;;;;;3.05;0.80;;;;;;;;;;6046225;23;20068;-81
2022/07/06 07:04:56;;;;;;;3.72;1.00;;;;;;;;;;6068917;23;20118;-81
2022/07/06 07:07:23;;;;;;;5.20;1.10;;;;;;;;;;6071048;23;20038;-82
2022/07/06 07:09:50;;;;;;;3.03;0.90;;;;;;;;;;6045561;23;20751;-81
2022/07/06 07:12:17;;;;;;;6.28;1.00;;;;;;;;;;6070800;23;20450;-81
2022/07/06 07:14:54;;;;;;;4.13;0.80;;;;;;;;;;6071404;23;20019;-81
2022/07/06 07:17:21;;;;;;;4.28;0.70;;;;;;;;;;6044690;23;20036;-81
2022/07/06 07:19:48;;;;;;;1.95;0.80;;;;;;;;;;6044252;23;20765;-82
2022/07/06 07:22:18;;;;;;;5.20;1.10;;;;;;;;;;6070374;23;20051;-81
2022/07/06 07:24:47;;;;;;;4.82;1.00;;;;;;;;;;6070538;23;20027;-81
2022/07/06 07:27:16;;;;;;;5.07;1.23;;;;;;;;;;6070654;23;20031;-81
2022/07/06 07:29:46;;;;;;;3.40;0.77;;;;;;;;;;6069205;23;20028;-81
2022/07/06 07:32:34;;;;;;;5.30;1.20;;;;;;;;;;6070067;23;20897;-82
2022/07/06 07:35:02;;;;;;;4.47;1.50;;;;;;;;;;6070447;23;20847;-81
2022/07/06 07:37:35;;;;;;;3.28;0.82;;;;;;;;;;6070974;23;20027;-81
2022/07/06 07:40:06;;;;;;;9.13;1.20;;;;;;;;;;6070070;23;20022;-81
2022/07/06 07:42:33;;;;;;;5.60;1.40;;;;;;;;;;6070689;23;20785;-81
2022/07/06 07:45:13;;;;;;;4.35;0.80;;;;;;;;;;6070108;23;20035;-80
2022/07/06 07:47:40;;;;;;;6.30;1.13;;;;;;;;;;6045456;23;20060;-81
2022/07/06 07:50:08;;;;;;;5.15;0.93;;;;;;;;;;6071547;23;20047;-81
2022/07/06 07:52:38;;;;;;;2.97;0.73;;;;;;;;;;6071792;23;20796;-84
2022/07/06 07:55:08;;;;;;;5.70;0.95;;;;;;;;;;6070534;23;20110;-81
2022/07/06 07:57:57;;;;;;;3.38;0.70;;;;;;;;;;6048820;23;20042;-81
2022/07/06 08:00:25;;;;;;;3.58;0.70;;;;;;;;;;6071624;23;20035;-81
2022/07/06 08:02:57;;;;;;;2.70;0.77;;;;;;;;;;6046730;23;20023;-81
2022/07/06 08:05:24;;;;;;;5.68;0.93;;;;;;;;;;6045121;23;20031;-82
2022/07/06 08:07:56;;;;;;;2.80;0.80;;;;;;;;;;6045990;23;20035;-81
2022/07/06 08:10:25;;;;;;;4.40;0.80;;;;;;;;;;6070215;23;20016;-81
2022/07/06 08:12:55;;;;;;;2.28;0.80;;;;;;;;;;6071359;23;20023;-81
2022/07/06 08:15:25;;;;;;;5.10;1.00;;;;;;;;;;6070518;23;20020;-81
2022/07/06 08:17:52;;;;;;;3.72;0.82;;;;;;;;;;6045672;23;20031;-82
2022/07/06 08:20:25;;;;;;;3.70;0.73;;;;;;;;;;6069714;23;20019;-82
2022/07/06 08:22:52;;;;;;;2.45;0.95;;;;;;;;;;6046086;23;20066;-81
2022/07/06 08:25:21;;;;;;;3.30;0.80;;;;;;;;;;6070208;23;20134;-81
2022/07/06 08:27:49;;;;;;;5.18;0.93;;;;;;;;;;6070582;23;20030;-82
2022/07/06 08:30:16;;;;;;;2.47;0.70;;;;;;;;;;6068130;23;20031;-81
2022/07/06 08:32:51;;;;;;;3.47;0.75;;;;;;;;;;6046745;23;20023;-81
2022/07/06 08:35:37;;;;;;;2.50;0.60;;;;;;;;;;6069713;23;20182;-82
2022/07/06 08:38:04;;;;;;;2.92;0.80;;;;;;;;;;6045987;23;20095;-81
2022/07/06 08:40:42;;;;;;;2.75;0.80;;;;;;;;;;6045583;23;20736;-81
2022/07/06 08:43:14;;;;;;;3.05;0.80;;;;;;;;;;6046560;23;20110;-82
2022/07/06 08:45:45;;;;;;;4.55;0.60;;;;;;;;;;6070786;23;20031;-81
2022/07/06 08:48:12;;;;;;;7.63;1.25;;;;;;;;;;6071082;23;20023;-81
2022/07/06 08:50:43;;;;;;;3.22;1.10;;;;;;;;;;6071101;23;20051;-81
2022/07/06 08:53:10;;;;;;;2.13;1.00;;;;;;;;;;6071045;23;20023;-82
2022/07/06 08:55:40;;;;;;;1.65;0.70;;;;;;;;;;6071444;23;20050;-82
2022/07/06 08:58:07;;;;;;;5.43;0.98;;;;;;;;;;6049971;23;20133;-82
2022/07/06 09:00:41;;;;;;;5.30;1.00;;;;;;;;;;6070296;23;20115;-81
2022/07/06 09:03:12;;;;;;;6.10;0.80;;;;;;;;;;6069332;23;20786;-82
2022/07/06 09:05:41;;;;;;;3.40;0.73;;;;;;;;;;6068748;23;20027;-81
2022/07/06 09:08:08;;;;;;;2.92;0.73;;;;;;;;;;6069247;23;20023;-81
2022/07/06 09:10:37;;;;;;;3.92;0.95;;;;;;;;;;6068064;23;20012;-82
2022/07/06 09:13:05;;;;;;;3.20;1.15;;;;;;;;;;6069546;23;20113;-81
2022/07/06 09:15:39;;;;;;;7.47;1.05;;;;;;;;;;6070322;23;20067;-82
2022/07/06 09:18:20;;;;;;;9.57;1.00;;;;;;;;;;6069894;23;20494;-82
2022/07/06 09:20:47;;;;;;;2.38;0.80;;;;;;;;;;6069599;23;20074;-81
2022/07/06 09:23:17;;;;;;;2.83;0.75;;;;;;;;;;6070474;23;20837;-81
2022/07/06 09:25:48;;;;;;;2.33;0.90;;;;;;;;;;6071385;23;20027;-82
2022/07/06 09:28:18;;;;;;;4.75;0.70;;;;;;;;;;6071600;23;20028;-82
2022/07/06 09:30:48;;;;;;;4.05;0.82;;;;;;;;;;6069445;23;20020;-82
2022/07/06 09:33:20;;;;;;;4.25;0.80;;;;;;;;;;6068981;23;20027;-81
2022/07/06 09:35:54;;;;;;;3.10;0.90;;;;;;;;;;6070486;23;20884;-81
2022/07/06 09:38:21;;;;;;;3.70;1.02;;;;;;;;;;6069815;23;20787;-83
2022/07/06 09:40:50;;;;;;;5.95;0.75;;;;;;;;;;6069673;23;20021;-81
2022/07/06 09:43:23;;;;;;;7.13;0.85;;;;;;;;;;6069091;23;20472;-81
2022/07/06 09:45:54;;;;;;;2.38;0.55;;;;;;;;;;6069925;23;20027;-81
2022/07/06 09:48:22;;;;;;;3.58;0.95;;;;;;;;;;6069055;23;20036;-81
2022/07/06 09:50:57;;;;;;;2.85;0.80;;;;;;;;;;6070507;23;20023;-81
2022/07/06 09:53:27;;;;;;;5.30;0.93;;;;;;;;;;6069450;23;20066;-81
2022/07/06 09:55:55;;;;;;;2.25;0.80;;;;;;;;;;6069146;23;20773;-81
2022/07/06 09:58:22;;;;;;;3.45;0.90;;;;;;;;;;6069136;23;20015;-82
2022/07/06 10:01:12;;;;;;;1.35;0.60;;;;;;;;;;6049064;23;20090;-81
2022/07/06 10:03:46;;;;;;;4.95;1.02;;;;;;;;;;6046508;23;20713;-81
2022/07/06 10:06:16;;;;;;;3.53;0.73;;;;;;;;;;6072300;23;20026;-82
2022/07/06 10:08:46;;;;;;;3.85;0.60;;;;;;;;;;6046215;23;20031;-82
2022/07/06 10:11:18;;;;;;;3.33;0.60;;;;;;;;;;6045561;23;20096;-82
2022/07/06 10:13:46;;;;;;;4.18;0.88;;;;;;;;;;6072471;23;20713;-82
2022/07/06 10:16:14;;;;;;;1.58;0.60;;;;;;;;;;6046908;23;20058;-81
2022/07/06 10:18:42;;;;;;;3.80;0.70;;;;;;;;;;6072516;23;20023;-81
2022/07/06 10:21:09;;;;;;;1.08;0.60;;;;;;;;;;6051831;23;20819;-82
2022/07/06 10:23:37;;;;;;;3.75;0.68;;;;;;;;;;6051313;23;20023;-81
2022/07/06 10:26:04;;;;;;;2.92;0.70;;;;;;;;;;6071980;23;20458;-81
2022/07/06 10:28:40;;;;;;;4.53;0.73;;;;;;;;;;6048088;23;20030;-82
2022/07/06 10:31:07;;;;;;;4.47;0.52;;;;;;;;;;6071193;23;20090;-82
2022/07/06 10:33:35;;;;;;;2.40;0.70;;;;;;;;;;6071928;23;20487;-82
2022/07/06 10:36:03;;;;;;;1.13;0.40;;;;;;;;;;6071212;23;20031;-81
2022/07/06 10:38:34;;;;;;;4.57;0.70;;;;;;;;;;6046751;23;20023;-81
2022/07/06 10:41:09;;;;;;;2.35;0.55;;;;;;;;;;6045977;23;20011;-81
2022/07/06 10:43:42;;;;;;;6.78;1.10;;;;;;;;;;6046471;23;20019;-80
2022/07/06 10:46:11;;;;;;;5.97;0.80;;;;;;;;;;6045965;23;20023;-80
2022/07/06 10:48:39;;;;;;;1.90;0.40;;;;;;;;;;6071172;23;20050;-80
2022/07/06 10:51:06;;;;;;;1.13;0.38;;;;;;;;;;6070637;23;20091;-81
2022/07/06 10:53:38;;;;;;;2.95;0.82;;;;;;;;;;6044872;23;20659;-81
2022/07/06 10:56:06;;;;;;;2.45;0.90;;;;;;;;;;6071899;23;20098;-81
2022/07/06 10:58:46;;;;;;;2.08;0.63;;;;;;;;;;6070810;23;20031;-80
2022/07/06 11:01:13;;;;;;;7.57;0.60;;;;;;;;;;6046097;23;20131;-80
2022/07/06 11:03:42;;;;;;;2.35;0.65;;;;;;;;;;6046152;23;20478;-81
2022/07/06 11:06:18;;;;;;;1.15;0.40;;;;;;;;;;6071702;23;20110;-81
2022/07/06 11:08:45;;;;;;;0.98;0.50;;;;;;;;;;6046497;23;20027;-81
2022/07/06 11:11:19;;;;;;;2.47;0.50;;;;;;;;;;6046235;23;20019;-81
2022/07/06 11:13:57;;;;;;;2.28;0.68;;;;;;;;;;6046464;23;20023;-81
2022/07/06 11:16:27;;;;;;;2.25;0.70;;;;;;;;;;6046135;23;20059;-81
2022/07/06 11:19:22;;;;;;;1.73;0.50;;;;;;;;;;6071741;23;20019;-81
2022/07/06 11:22:05;;;;;;;4.95;0.70;;;;;;;;;;6044311;23;20844;-81
2022/07/06 11:24:35;;;;;;;1.25;0.60;;;;;;;;;;6072014;23;20106;-81
2022/07/06 11:27:06;;;;;;;2.72;0.68;;;;;;;;;;6046091;23;20023;-81
2022/07/06 11:29:38;;;;;;;1.23;0.60;;;;;;;;;;6072452;23;20054;-80
2022/07/06 11:32:10;;;;;;;1.45;0.63;;;;;;;;;;6072146;23;20787;-81
2022/07/06 11:34:39;;;;;;;1.08;0.60;;;;;;;;;;6072790;23;20075;-80
2022/07/06 11:37:13;;;;;;;1.38;0.70;;;;;;;;;;6071622;23;20023;-82
2022/07/06 11:39:42;;;;;;;1.48;0.68;;;;;;;;;;6071469;23;20031;-81
2022/07/06 11:42:13;;;;;;;1.52;0.60;;;;;;;;;;6070737;23;20862;-81
2022/07/06 11:44:41;;;;;;;2.13;0.60;;;;;;;;;;6070932;23;20022;-81
2022/07/06 11:47:09;;;;;;;1.38;0.50;;;;;;;;;;6045247;23;20079;-81
2022/07/06 11:49:37;;;;;;;2.63;0.68;;;;;;;;;;6070276;23;20019;-81
2022/07/06 11:52:11;;;;;;;6.28;0.82;;;;;;;;;;6046537;23;20537;-81
2022/07/06 11:54:39;;;;;;;1.65;0.60;;;;;;;;;;6070649;23;20031;-81
2022/07/06 11:57:13;;;;;;;3.63;0.98;;;;;;;;;;6071483;23;20027;-81
2022/07/06 11:59:41;;;;;;;3.60;0.65;;;;;;;;;;6071180;23;20812;-80
2022/07/06 12:02:10;;;;;;;0.95;0.70;;;;;;;;;;6070969;23;20863;-81
2022/07/06 12:04:44;;;;;;;2.80;1.00;;;;;;;;;;6046579;23;20726;-80
2022/07/06 12:07:13;;;;;;;2.97;0.95;;;;;;;;;;6045470;23;20027;-81
2022/07/06 12:09:47;;;;;;;6.28;0.73;;;;;;;;;;6047400;23;20039;-81
2022/07/06 12:12:19;;;;;;;2.25;0.70;;;;;;;;;;6046800;23;20732;-81
2022/07/06 12:14:46;;;;;;;3.05;0.70;;;;;;;;;;6071394;23;20746;-82
2022/07/06 12:17:15;;;;;;;3.42;0.80;;;;;;;;;;6069866;23;20030;-81
2022/07/06 12:19:42;;;;;;;1.33;0.70;;;;;;;;;;6045106;23;20061;-81
2022/07/06 12:22:25;;;;;;;2.50;0.85;;;;;;;;;;6070773;23;20031;-81
2022/07/06 12:24:52;;;;;;;2.90;0.85;;;;;;;;;;6071236;23;20023;-82
2022/07/06 12:27:25;;;;;;;2.25;0.75;;;;;;;;;;6045847;23;20027;-81
2022/07/06 12:30:08;;;;;;;1.55;0.68;;;;;;;;;;6071979;23;20430;-81
2022/07/06 12:32:38;;;;;;;4.77;1.00;;;;;;;;;;6070763;23;20020;-81
2022/07/06 12:35:05;;;;;;;2.08;0.75;;;;;;;;;;6070162;23;20224;-81
2022/07/06 12:37:32;;;;;;;2.13;0.80;;;;;;;;;;6046659;23;20020;-82
2022/07/06 12:40:10;;;;;;;3.17;0.88;;;;;;;;;;6044815;23;20019;-81
2022/07/06 12:42:45;;;;;;;2.33;0.77;;;;;;;;;;6070916;23;20102;-81
2022/07/06 12:45:12;;;;;;;2.30;0.80;;;;;;;;;;6069294;23;20410;-81
2022/07/06 12:47:42;;;;;;;2.80;0.70;;;;;;;;;;6045758;23;20028;-81
2022/07/06 12:50:12;;;;;;;1.88;0.73;;;;;;;;;;6068299;23;20079;-83
2022/07/06 12:52:39;;;;;;;4.38;1.13;;;;;;;;;;6068009;23;20075;-83
2022/07/06 12:55:09;;;;;;;3.22;0.82;;;;;;;;;;6068013;23;20789;-83
2022/07/06 12:57:48;;;;;;;3.88;1.00;;;;;;;;;;6067314;23;20027;-83
2022/07/06 13:00:19;;;;;;;2.10;0.82;;;;;;;;;;6068723;23;20023;-83
2022/07/06 13:02:53;;;;;;;5.60;0.93;;;;;;;;;;6069043;23;20446;-83
2022/07/06 13:05:39;;;;;;;1.63;0.70;;;;;;;;;;6046960;23;20508;-82
2022/07/06 13:08:15;;;;;;;4.65;0.68;;;;;;;;;;6069129;23;20027;-83
2022/07/06 13:10:48;;;;;;;2.60;0.80;;;;;;;;;;6066543;23;20031;-82
2022/07/06 13:13:23;;;;;;;1.92;0.77;;;;;;;;;;6068539;23;20528;-83
2022/07/06 13:15:54;;;;;;;2.13;0.60;;;;;;;;;;6041826;23;20028;-83
2022/07/06 13:18:26;;;;;;;5.38;0.70;;;;;;;;;;6067952;23;20469;-84
2022/07/06 13:30:57;;;;;;;3.33;0.68;;;;;;;;;;5815548;24;20027;-80
2022/07/06 13:33:38;;;;;;;2.53;0.82;;;;;;;;;;5835054;24;20039;-79
2022/07/06 13:36:15;;;;;;;3.25;1.15;;;;;;;;;;5815418;24;20426;-80
2022/07/06 13:38:56;;;;;;;3.10;1.10;;;;;;;;;;5833726;24;20058;-82
2022/07/06 13:41:24;;;;;;;5.28;1.15;;;;;;;;;;5825273;24;20058;-80
2022/07/06 13:43:53;;;;;;;2.13;0.70;;;;;;;;;;5896845;24;20680;-81
2022/07/06 13:46:22;;;;;;;2.03;0.88;;;;;;;;;;5875240;24;20022;-84
2022/07/06 13:48:49;;;;;;;4.80;0.90;;;;;;;;;;5894791;24;20032;-83
2022/07/06 13:51:18;;;;;;;2.25;0.88;;;;;;;;;;5892718;24;20520;-83
2022/07/06 13:53:56;;;;;;;6.43;1.08;;;;;;;;;;5874712;24;20030;-83
2022/07/06 13:56:23;;;;;;;1.48;0.82;;;;;;;;;;5896669;24;20502;-83
2022/07/06 13:58:54;;;;;;;2.20;0.90;;;;;;;;;;5870393;24;20717;-82
2022/07/06 14:01:21;;;;;;;2.80;1.13;;;;;;;;;;5896865;24;20089;-83
2022/07/06 14:04:01;;;;;;;2.47;0.90;;;;;;;;;;5920714;23;20024;-84
2022/07/06 14:06:40;;;;;;;2.53;0.90;;;;;;;;;;5986756;23;20028;-83
2022/07/06 14:09:13;;;;;;;4.68;1.00;;;;;;;;;;6067612;23;20415;-84
2022/07/06 14:11:42;;;;;;;2.75;1.00;;;;;;;;;;6044049;23;20035;-83
2022/07/06 14:14:10;;;;;;;3.15;1.08;;;;;;;;;;6041455;23;20023;-83
2022/07/06 14:16:40;;;;;;;4.55;1.20;;;;;;;;;;6067553;23;20015;-82
2022/07/06 14:19:14;;;;;;;4.05;1.10;;;;;;;;;;6043819;23;20031;-83
2022/07/06 14:21:47;;;;;;;5.05;1.00;;;;;;;;;;6068594;23;20861;-82
2022/07/06 14:24:16;;;;;;;2.50;1.10;;;;;;;;;;6044092;23;21140;-82
2022/07/06 14:26:44;;;;;;;5.07;1.13;;;;;;;;;;6042245;23;20496;-83
2022/07/06 14:29:20;;;;;;;4.30;1.20;;;;;;;;;;6071440;23;20050;-83
2022/07/06 14:31:48;;;;;;;3.05;1.02;;;;;;;;;;6045517;23;20019;-83
2022/07/06 14:34:19;;;;;;;1.85;0.80;;;;;;;;;;6069367;23;20080;-84
2022/07/06 14:36:49;;;;;;;5.95;1.40;;;;;;;;;;6043211;23;20058;-84
2022/07/06 14:39:16;;;;;;;7.40;1.10;;;;;;;;;;6067796;23;20043;-84
2022/07/06 14:41:45;;;;;;;5.18;1.40;;;;;;;;;;6061475;23;20031;-84
2022/07/06 14:44:13;;;;;;;2.47;0.98;;;;;;;;;;6067330;23;20122;-83
2022/07/06 14:46:40;;;;;;;3.13;1.10;;;;;;;;;;6043000;23;20025;-83
2022/07/06 14:49:13;;;;;;;3.80;1.20;;;;;;;;;;6043886;23;20031;-84
2022/07/06 14:51:48;;;;;;;5.93;1.30;;;;;;;;;;6043672;23;20110;-84
2022/07/06 14:54:16;;;;;;;1.85;1.00;;;;;;;;;;6041934;23;20023;-83
2022/07/06 14:56:46;;;;;;;3.38;1.17;;;;;;;;;;6041554;23;20019;-86
2022/07/06 14:59:17;;;;;;;4.72;1.33;;;;;;;;;;6059814;23;20525;-85
2022/07/06 15:01:52;;;;;;;2.55;1.40;;;;;;;;;;6068207;23;20030;-84
2022/07/06 15:04:23;;;;;;;5.65;1.10;;;;;;;;;;6066469;23;20027;-84
2022/07/06 15:06:50;;;;;;;6.20;1.75;;;;;;;;;;6068086;23;20109;-81
2022/07/06 15:09:21;;;;;;;4.65;1.25;;;;;;;;;;6073136;23;20059;-80